Time;durP1;ratioP1;P1;durP2;ratioP2;P2;SDS_P1;SDS_P2;PMS_P1;PMS_P2;Temp;Humidity;BMP_temperature;BMP_pressure;BME280_temperature;BME280_humidity;BME280_pressure;Samples;Min_cycle;Max_cycle;Signal;HPM_P1;HPM_P2
2022/06/05 00:00:29;;;;;;;;;;;25.80;96.50;;;;;;5073243;28;20302;-53
2022/06/05 00:02:55;;;;;;;;;;;25.80;96.60;;;;;;5071781;28;20036;-49
2022/06/05 00:05:29;;;;;;;;;;;25.80;96.60;;;;;;5082571;28;19920;-52
2022/06/05 00:07:58;;;;;;;;;;;25.80;96.60;;;;;;5089222;28;24083;-46
2022/06/05 00:10:31;;;;;;;;;;;25.80;96.70;;;;;;5103804;28;19900;-52
2022/06/05 00:13:06;;;;;;;;;;;25.80;96.80;;;;;;5083744;28;20142;-55
2022/06/05 00:15:33;;;;;;;;;;;25.80;96.80;;;;;;5077106;28;20280;-50
2022/06/05 00:17:59;;;;;;;;;;;25.80;96.80;;;;;;5082350;28;19900;-51
2022/06/05 00:20:26;;;;;;;;;;;25.80;96.80;;;;;;5071639;28;19950;-53
2022/06/05 00:22:52;;;;;;;;;;;25.80;96.80;;;;;;5082649;28;20185;-48
2022/06/05 00:25:18;;;;;;;;;;;25.80;96.80;;;;;;5083146;28;19904;-45
2022/06/05 00:27:50;;;;;;;;;;;25.80;96.90;;;;;;5077031;28;19905;-48
2022/06/05 00:30:22;;;;;;;;;;;25.80;96.90;;;;;;5083338;28;19953;-48
2022/06/05 00:32:48;;;;;;;;;;;25.80;97.00;;;;;;5082658;28;19931;-57
2022/06/05 00:35:16;;;;;;;;;;;25.80;96.90;;;;;;5087746;28;24086;-45
2022/06/05 00:38:00;;;;;;;;;;;25.80;96.90;;;;;;5102266;28;19901;-49
2022/06/05 00:40:29;;;;;;;;;;;25.80;96.90;;;;;;5103965;28;20088;-45
2022/06/05 00:42:57;;;;;;;;;;;25.80;96.90;;;;;;5103310;28;19906;-53
2022/06/05 00:45:25;;;;;;;;;;;25.70;96.90;;;;;;5103472;28;19946;-48
2022/06/05 00:47:51;;;;;;;;;;;25.60;96.90;;;;;;5104865;28;19908;-49
2022/06/05 00:50:20;;;;;;;;;;;25.70;96.80;;;;;;5105565;28;19931;-45
2022/06/05 00:52:49;;;;;;;;;;;25.70;96.70;;;;;;5093046;28;19900;-49
2022/06/05 00:55:16;;;;;;;;;;;25.70;96.70;;;;;;5094701;28;19942;-46
2022/06/05 00:57:42;;;;;;;;;;;25.70;96.80;;;;;;5084343;28;19911;-44
2022/06/05 01:00:20;;;;;;;;;;;25.60;96.80;;;;;;5073357;28;19904;-47
2022/06/05 01:02:47;;;;;;;;;;;25.60;96.90;;;;;;5070449;28;19951;-50
2022/06/05 01:05:15;;;;;;;;;;;25.60;97.00;;;;;;5073848;28;19911;-47
2022/06/05 01:07:42;;;;;;;;;;;25.50;97.20;;;;;;5079159;28;20015;-53
2022/06/05 01:10:09;;;;;;;;;;;25.50;97.10;;;;;;5075462;28;19905;-50
2022/06/05 01:12:37;;;;;;;;;;;25.40;97.10;;;;;;5066116;28;20133;-48
2022/06/05 01:15:13;;;;;;;;;;;25.30;97.40;;;;;;5066905;28;19932;-48
2022/06/05 01:18:02;;;;;;;;;;;25.30;97.50;;;;;;5073024;28;19911;-50
2022/06/05 01:20:28;;;;;;;;;;;25.30;97.70;;;;;;5048784;28;19908;-48
2022/06/05 01:23:13;;;;;;;;;;;25.30;97.30;;;;;;5086375;28;19958;-52
2022/06/05 01:25:45;;;;;;;;;;;25.30;97.40;;;;;;5086072;28;20234;-46
2022/06/05 01:28:14;;;;;;;;;;;25.30;97.30;;;;;;5086967;28;19939;-49
2022/06/05 01:30:44;;;;;;;;;;;25.30;97.20;;;;;;5085022;28;20097;-46
2022/06/05 01:33:15;;;;;;;;;;;25.30;97.00;;;;;;5078824;28;19943;-51
2022/06/05 01:35:50;;;;;;;;;;;25.30;96.90;;;;;;5080584;28;24114;-46
2022/06/05 01:38:18;;;;;;;;;;;25.30;96.80;;;;;;5085998;28;19912;-46
2022/06/05 01:40:46;;;;;;;;;;;25.30;96.70;;;;;;5085854;28;20180;-50
2022/06/05 01:43:15;;;;;;;;;;;25.30;96.50;;;;;;5085677;28;19916;-48
2022/06/05 01:46:01;;;;;;;;;;;25.20;96.40;;;;;;5085641;28;19900;-52
2022/06/05 01:48:29;;;;;;;;;;;25.20;96.30;;;;;;5087864;28;19942;-54
2022/06/05 01:51:00;;;;;;;;;;;25.10;96.30;;;;;;5094930;28;19907;-48
2022/06/05 01:53:41;;;;;;;;;;;25.10;96.30;;;;;;5085517;28;19915;-46
2022/06/05 01:56:14;;;;;;;;;;;25.10;96.40;;;;;;5085625;28;19904;-47
2022/06/05 01:58:42;;;;;;;;;;;25.10;96.30;;;;;;5084656;28;19908;-47
2022/06/05 02:01:11;;;;;;;;;;;25.00;96.20;;;;;;5085610;28;19931;-48
2022/06/05 02:03:39;;;;;;;;;;;25.00;96.20;;;;;;5085525;28;19915;-46
2022/06/05 02:06:08;;;;;;;;;;;25.00;96.10;;;;;;5085336;28;19901;-47
2022/06/05 02:08:54;;;;;;;;;;;25.10;96.00;;;;;;5085552;28;19914;-51
2022/06/05 02:11:22;;;;;;;;;;;25.00;96.00;;;;;;5084604;28;24111;-48
2022/06/05 02:13:54;;;;;;;;;;;25.00;96.00;;;;;;5085381;28;24070;-46
2022/06/05 02:16:21;;;;;;;;;;;25.00;96.10;;;;;;5085291;28;19900;-50
2022/06/05 02:18:47;;;;;;;;;;;25.00;96.20;;;;;;5085601;28;20192;-48
2022/06/05 02:21:13;;;;;;;;;;;25.00;96.00;;;;;;5085292;28;19907;-44
2022/06/05 02:23:41;;;;;;;8.50;0.85;;;25.00;96.00;;;;;;5085352;28;24054;-44
2022/06/05 02:26:08;;;;;;;;;;;25.10;95.90;;;;;;5084940;28;19900;-47
2022/06/05 02:28:34;;;;;;;;;;;25.00;95.80;;;;;;5088198;28;19908;-49
2022/06/05 02:31:03;;;;;;;;;;;25.00;95.80;;;;;;5101950;28;19939;-50
2022/06/05 02:33:48;;;;;;;;;;;25.00;95.90;;;;;;5094189;28;19908;-53
2022/06/05 02:36:33;;;;;;;;;;;25.00;96.00;;;;;;5105283;28;24142;-49
2022/06/05 02:38:59;;;;;;;;;;;24.90;96.20;;;;;;5106035;28;20088;-52
2022/06/05 02:41:32;;;;;;;;;;;24.90;96.30;;;;;;5105956;28;19907;-47
2022/06/05 02:46:52;;;;;;;;;;;24.90;96.10;;;;;;5105483;28;20001;-44
2022/06/05 02:49:24;;;;;;;;;;;25.00;96.10;;;;;;5105554;28;20184;-45
2022/06/05 02:51:51;;;;;;;;;;;25.00;95.90;;;;;;5105393;28;24112;-48
2022/06/05 02:54:24;;;;;;;;;;;25.00;95.90;;;;;;5105480;28;19912;-51
2022/06/05 02:56:50;;;;;;;;;;;25.00;96.00;;;;;;5105329;28;24065;-51
2022/06/05 02:59:17;;;;;;;;;;;25.00;96.00;;;;;;5105757;28;24065;-46
2022/06/05 03:04:28;;;;;;;;;;;25.00;95.90;;;;;;5105373;28;19960;-48
2022/06/05 03:06:54;;;;;;;;;;;25.00;95.90;;;;;;5105144;28;19899;-49
2022/06/05 03:09:20;;;;;;;;;;;25.10;95.90;;;;;;5104340;28;19971;-50
2022/06/05 03:11:46;;;;;;;;;;;25.10;95.90;;;;;;5104411;28;20110;-51
2022/06/05 03:14:13;;;;;;;;;;;25.00;96.00;;;;;;5105240;28;19951;-50
2022/06/05 03:16:39;;;;;;;;;;;25.10;96.10;;;;;;5104678;28;19907;-45
2022/06/05 03:19:05;;;;;;;;;;;25.00;96.00;;;;;;5105317;28;19908;-47
2022/06/05 03:21:35;;;;;;;;;;;25.00;96.10;;;;;;5104729;28;20188;-52
2022/06/05 03:24:01;;;;;;;;;;;25.00;96.20;;;;;;5104756;28;20009;-44
2022/06/05 03:26:28;;;;;;;;;;;24.90;96.40;;;;;;5104768;28;24074;-45
2022/06/05 03:28:54;;;;;;;;;;;25.00;96.30;;;;;;5105001;28;19946;-47
2022/06/05 03:31:20;;;;;;;;;;;25.00;96.20;;;;;;5104175;28;19900;-52
2022/06/05 03:33:46;;;;;;;;;;;25.00;96.30;;;;;;5104571;28;24051;-45
2022/06/05 03:36:13;;;;;;;;;;;24.90;96.50;;;;;;5104439;28;19912;-53
2022/06/05 03:38:40;;;;;;;;;;;25.00;96.70;;;;;;5104592;28;19908;-51
2022/06/05 03:41:08;;;;;;;;;;;24.90;96.50;;;;;;5100538;28;24072;-50
2022/06/05 03:43:34;;;;;;;;;;;24.90;96.50;;;;;;5091989;28;19930;-45
2022/06/05 03:46:00;;;;;;;;;;;24.90;96.60;;;;;;5104239;28;24110;-44
2022/06/05 03:48:27;;;;;;;;;;;24.90;96.60;;;;;;5104941;28;24068;-45
2022/06/05 03:50:53;;;;;;;;;;;24.90;96.60;;;;;;5104350;28;24075;-47
2022/06/05 03:53:19;;;;;;;;;;;24.90;96.60;;;;;;5104408;28;20228;-45
2022/06/05 03:55:45;;;;;;;;;;;25.00;96.50;;;;;;5104029;28;19907;-45
2022/06/05 03:58:11;;;;;;;;;;;25.00;96.40;;;;;;5104225;28;19908;-50
2022/06/05 04:00:37;;;;;;;;;;;24.90;96.40;;;;;;5103720;28;20196;-46
2022/06/05 04:03:03;;;;;;;;;;;24.90;96.40;;;;;;5104055;28;19914;-46
2022/06/05 04:05:30;;;;;;;;;;;24.90;96.40;;;;;;5104244;28;19906;-45
2022/06/05 04:07:56;;;;;;;;;;;24.90;96.50;;;;;;5104150;28;24114;-49
2022/06/05 04:10:22;;;;;;;;;;;24.80;96.40;;;;;;5103965;28;24068;-50
2022/06/05 04:12:49;;;;;;;;;;;24.70;96.50;;;;;;5103895;28;24071;-55
2022/06/05 04:15:15;;;;;;;;;;;24.70;96.40;;;;;;5103126;28;20281;-56
2022/06/05 04:17:42;;;;;;;;;;;24.80;96.30;;;;;;5103350;28;19904;-56
2022/06/05 04:20:08;;;;;;;;;;;24.80;96.10;;;;;;5103621;28;19945;-56
2022/06/05 04:22:35;;;;;;;;;;;24.90;96.00;;;;;;5109320;28;19900;-56
2022/06/05 04:25:02;;;;;;;;;;;24.90;95.90;;;;;;5110161;28;19911;-55
2022/06/05 04:27:28;;;;;;;;;;;24.90;95.70;;;;;;5110415;28;19900;-57
2022/06/05 04:29:54;;;;;;;;;;;25.00;95.70;;;;;;5110608;28;19983;-55
2022/06/05 04:32:21;;;;;;;;;;;25.00;95.70;;;;;;5110235;28;24104;-59
2022/06/05 04:34:49;;;;;;;;;;;25.00;95.70;;;;;;5110504;28;24075;-55
2022/06/05 04:37:15;;;;;;;;;;;25.00;95.70;;;;;;5110520;28;19900;-57
2022/06/05 04:39:42;;;;;;;;;;;25.00;95.60;;;;;;5110741;28;19908;-61
2022/06/05 04:42:08;;;;;;;;;;;25.00;95.60;;;;;;5110361;28;19955;-57
2022/06/05 04:44:34;;;;;;;;;;;25.00;95.50;;;;;;5110928;28;24057;-56
2022/06/05 04:47:00;;;;;;;;;;;25.00;95.50;;;;;;5109919;28;20207;-56
2022/06/05 04:49:26;;;;;;;;;;;25.00;95.50;;;;;;5110721;28;19908;-55
2022/06/05 04:51:52;;;;;;;;;;;25.00;95.50;;;;;;5110144;28;19900;-56
2022/06/05 04:54:18;;;;;;;;;;;25.10;95.50;;;;;;5110550;28;19912;-57
2022/06/05 04:56:45;;;;;;;;;;;25.00;95.30;;;;;;5110045;28;25086;-56
2022/06/05 04:59:11;;;;;;;;;;;25.00;95.20;;;;;;5110296;28;24080;-59
2022/06/05 05:01:39;;;;;;;;;;;25.00;95.20;;;;;;5109986;28;19900;-56
2022/06/05 05:04:07;;;;;;;;;;;25.00;95.10;;;;;;5110515;28;19907;-57
2022/06/05 05:06:33;;;;;;;;;;;25.00;95.00;;;;;;5110546;28;19900;-57
2022/06/05 05:09:00;;;;;;;;;;;25.00;95.00;;;;;;5109997;28;24068;-56
2022/06/05 05:11:26;;;;;;;;;;;25.00;94.90;;;;;;5109981;28;19998;-55
2022/06/05 05:13:56;;;;;;;;;;;25.00;94.90;;;;;;5110233;28;19904;-56
2022/06/05 05:16:23;;;;;;;;;;;25.00;94.90;;;;;;5109956;28;19961;-57
2022/06/05 05:18:49;;;;;;;;;;;25.00;94.90;;;;;;5110491;28;19938;-57
2022/06/05 05:21:17;;;;;;;;;;;25.00;94.80;;;;;;5110361;28;25090;-60
2022/06/05 05:23:43;;;;;;;;;;;25.00;94.70;;;;;;5110290;28;19926;-59
2022/06/05 05:26:11;;;;;;;;;;;25.00;94.70;;;;;;5109653;28;20054;-58
2022/06/05 05:28:38;;;;;;;;;;;25.00;94.70;;;;;;5110010;28;24120;-56
2022/06/05 05:31:17;;;;;;;;;;;25.00;94.70;;;;;;5109637;28;19959;-57
2022/06/05 05:33:43;;;;;;;;;;;25.00;94.60;;;;;;5106866;28;19904;-57
2022/06/05 05:36:10;;;;;;;;;;;25.00;94.60;;;;;;5106448;28;24099;-58
2022/06/05 05:38:37;;;;;;;;;;;25.00;94.60;;;;;;5106688;28;24074;-56
2022/06/05 05:43:48;;;;;;;;;;;25.00;94.40;;;;;;5088736;28;24058;-55
2022/06/05 05:46:15;;;;;;;;;;;25.00;94.40;;;;;;5092251;28;19900;-58
2022/06/05 05:48:41;;;;;;;;;;;25.00;94.30;;;;;;5086552;28;19909;-56
2022/06/05 05:51:11;;;;;;;;;;;25.00;94.30;;;;;;5086434;28;19900;-52
2022/06/05 05:53:38;;;;;;;;;;;25.00;94.20;;;;;;5086213;28;19908;-56
2022/06/05 05:56:11;;;;;;;;;;;25.00;94.20;;;;;;5086041;28;19905;-59
2022/06/05 05:58:37;;;;;;;;;;;25.00;94.20;;;;;;5086785;28;20241;-56
2022/06/05 06:01:05;;;;;;;;;;;25.00;94.10;;;;;;5086002;28;24103;-55
2022/06/05 06:03:31;;;;;;;;;;;25.00;94.20;;;;;;5086209;28;19909;-56
2022/06/05 06:05:58;;;;;;;;;;;25.00;94.20;;;;;;5085890;28;19960;-54
2022/06/05 06:08:24;;;;;;;;;;;25.00;94.20;;;;;;5085968;28;19915;-55
2022/06/05 06:10:51;;;;;;;;;;;25.00;94.20;;;;;;5085971;28;20246;-56
2022/06/05 06:13:17;;;;;;;;;;;25.00;94.20;;;;;;5085675;28;19908;-56
2022/06/05 06:15:43;;;;;;;;;;;25.00;94.20;;;;;;5085754;28;24097;-57
2022/06/05 06:18:09;;;;;;;;;;;25.00;94.20;;;;;;5085696;28;20230;-62
2022/06/05 06:20:35;;;;;;;;;;;24.90;94.20;;;;;;5085361;28;20207;-56
2022/06/05 06:23:02;;;;;;;;;;;24.90;94.30;;;;;;5085474;28;19979;-56
2022/06/05 06:25:28;;;;;;;;;;;24.90;94.30;;;;;;5086144;28;20052;-58
2022/06/05 06:27:54;;;;;;;;;;;24.90;94.40;;;;;;5085413;28;24087;-57
2022/06/05 06:30:20;;;;;;;;;;;24.90;94.50;;;;;;5085393;28;19945;-57
2022/06/05 06:32:46;;;;;;;;;;;24.90;94.60;;;;;;5085658;28;20203;-56
2022/06/05 06:35:12;;;;;;;;;;;24.90;94.60;;;;;;5085010;28;19912;-56
2022/06/05 06:37:39;;;;;;;;;;;24.90;94.70;;;;;;5085424;28;19968;-59
2022/06/05 06:40:05;;;;;;;;;;;24.90;94.70;;;;;;5085539;28;19931;-63
2022/06/05 06:42:31;;;;;;;;;;;24.90;94.70;;;;;;5085525;28;19907;-55
2022/06/05 06:44:57;;;;;;;;;;;24.90;94.70;;;;;;5085722;28;19915;-62
2022/06/05 06:47:24;;;;;;;;;;;24.90;94.80;;;;;;5085128;28;24086;-58
2022/06/05 06:49:50;;;;;;;;;;;24.90;94.90;;;;;;5086329;28;19915;-58
2022/06/05 06:52:16;;;;;;;;;;;24.80;94.80;;;;;;5084897;28;24073;-56
2022/06/05 06:54:42;;;;;;;;;;;24.90;94.80;;;;;;5085358;28;19930;-58
2022/06/05 06:57:08;;;;;;;;;;;24.80;94.80;;;;;;5084852;28;20120;-60
2022/06/05 06:59:35;;;;;;;;;;;24.80;94.70;;;;;;5085430;28;19904;-56
2022/06/05 07:02:01;;;;;;;;;;;24.90;94.80;;;;;;5085186;28;24056;-59
2022/06/05 07:04:27;;;;;;;;;;;24.90;94.80;;;;;;5085472;28;19936;-60
2022/06/05 07:06:53;;;;;;;;;;;24.80;94.90;;;;;;5085311;28;20065;-59
2022/06/05 07:09:20;;;;;;;;;;;24.80;94.90;;;;;;5084972;28;24071;-58
2022/06/05 07:11:46;;;;;;;;;;;24.80;94.90;;;;;;5084856;28;19904;-60
2022/06/05 07:14:12;;;;;;;;;;;24.80;94.80;;;;;;5084817;28;19908;-57
2022/06/05 07:16:39;;;;;;;;;;;24.80;94.90;;;;;;5084492;28;19967;-59
2022/06/05 07:19:05;;;;;;;;;;;24.80;95.00;;;;;;5084972;28;19904;-64
2022/06/05 07:21:31;;;;;;;;;;;24.80;95.00;;;;;;5084767;28;19936;-56
2022/06/05 07:23:58;;;;;;;;;;;24.80;95.00;;;;;;5084591;28;24109;-57
2022/06/05 07:26:25;;;;;;;;;;;24.80;95.00;;;;;;5084350;28;19919;-57
2022/06/05 07:28:53;;;;;;;;;;;24.80;95.00;;;;;;5084834;28;24078;-56
2022/06/05 07:31:20;;;;;;;;;;;24.80;95.00;;;;;;5084443;28;19911;-57
2022/06/05 07:33:46;;;;;;;;;;;24.80;95.10;;;;;;5084703;28;19904;-57
2022/06/05 07:36:14;;;;;;;;;;;24.80;95.10;;;;;;5084098;28;19912;-58
2022/06/05 07:38:40;;;;;;;;;;;24.80;95.00;;;;;;5084452;28;24074;-57
2022/06/05 07:41:17;;;;;;;;;;;24.80;94.90;;;;;;5084207;28;19944;-56
2022/06/05 07:43:44;;;;;;;;;;;24.70;94.90;;;;;;5084803;28;19904;-58
2022/06/05 07:46:10;;;;;;;;;;;24.70;94.90;;;;;;5084188;28;19911;-57
2022/06/05 07:48:36;;;;;;;;;;;24.70;94.90;;;;;;5084546;28;19962;-57
2022/06/05 07:56:32;;;;;;;;;;;24.70;94.70;;;;;;5083500;28;20003;-58
2022/06/05 07:58:58;;;;;;;;;;;24.70;94.80;;;;;;5084424;28;24069;-60
2022/06/05 08:01:24;;;;;;;;;;;24.70;94.80;;;;;;5083777;28;19947;-56
2022/06/05 08:03:50;;;;;;;;;;;24.70;94.80;;;;;;5083634;28;19904;-60
2022/06/05 08:06:17;;;;;;;;;;;24.70;94.80;;;;;;5083943;28;19905;-59
2022/06/05 08:08:43;;;;;;;;;;;24.70;94.80;;;;;;5084009;28;20099;-56
2022/06/05 08:11:09;;;;;;;;;;;24.70;94.60;;;;;;5083614;28;24068;-57
2022/06/05 08:13:35;;;;;;;;;;;24.70;94.60;;;;;;5083932;28;19912;-56
2022/06/05 08:16:02;;;;;;;;;;;24.70;94.50;;;;;;5083630;28;19940;-58
2022/06/05 08:18:28;;;;;;;;;;;24.70;94.60;;;;;;5083854;28;19905;-56
2022/06/05 08:20:54;;;;;;;;;;;24.70;94.60;;;;;;5083560;28;19904;-56
2022/06/05 08:23:20;;;;;;;;;;;24.70;94.70;;;;;;5083652;28;19908;-56
2022/06/05 08:25:46;;;;;;;;;;;24.70;94.70;;;;;;5083484;28;19911;-63
2022/06/05 08:28:13;;;;;;;;;;;24.70;94.60;;;;;;5083567;28;19975;-58
2022/06/05 08:30:39;;;;;;;;;;;24.70;94.60;;;;;;5083509;28;20101;-56
2022/06/05 08:33:05;;;;;;;;;;;24.70;94.50;;;;;;5084203;28;19931;-58
2022/06/05 08:35:32;;;;;;;;;;;24.70;94.60;;;;;;5083984;28;19916;-58
2022/06/05 08:43:46;;;;;;;;;;;24.60;94.60;;;;;;5084083;28;19990;-57
2022/06/05 08:46:19;;;;;;;;;;;24.70;94.70;;;;;;5083307;28;24118;-58
2022/06/05 08:48:49;;;;;;;;;;;24.70;94.70;;;;;;5083295;28;24825;-56
2022/06/05 08:51:22;;;;;;;;;;;24.70;94.70;;;;;;5084309;28;20092;-56
2022/06/05 08:54:00;;;;;;;;;;;24.70;94.60;;;;;;5084423;28;24076;-57
2022/06/05 08:56:36;;;;;;;;;;;24.70;94.70;;;;;;5083399;28;19916;-57
2022/06/05 08:59:07;;;;;;;;;;;24.70;94.80;;;;;;5083913;28;19904;-58
2022/06/05 09:01:36;;;;;;;;;;;24.70;94.90;;;;;;5083511;28;20242;-56
2022/06/05 09:04:10;;;;;;;;;;;24.60;94.90;;;;;;5083408;28;20222;-58
2022/06/05 09:06:48;;;;;;;;;;;24.70;95.00;;;;;;5083143;28;19931;-59
2022/06/05 09:09:19;;;;;;;;;;;24.70;94.90;;;;;;5085602;28;19939;-57
2022/06/05 09:11:51;;;;;;;;;;;24.70;94.90;;;;;;5087033;28;19908;-57
2022/06/05 09:14:24;;;;;;;;;;;24.70;94.90;;;;;;5086930;28;19905;-55
2022/06/05 09:16:53;;;;;;;;;;;24.70;95.00;;;;;;5086843;28;24062;-56
2022/06/05 09:19:23;;;;;;;;;;;24.70;95.00;;;;;;5087343;28;19928;-56
2022/06/05 09:21:58;;;;;;;;;;;24.70;95.00;;;;;;5086993;28;20131;-57
2022/06/05 09:24:31;;;;;;;;;;;24.70;95.20;;;;;;5087054;28;19901;-57
2022/06/05 09:27:01;;;;;;;;;;;24.70;95.00;;;;;;5086679;28;24100;-57
2022/06/05 09:29:34;;;;;;;;;;;24.70;95.00;;;;;;5086936;28;20129;-56
2022/06/05 09:32:10;;;;;;;;;;;24.70;95.10;;;;;;5086311;28;24068;-57
2022/06/05 09:34:47;;;;;;;;;;;24.70;95.10;;;;;;5086817;28;19911;-57
2022/06/05 09:37:16;;;;;;;;;;;24.60;95.10;;;;;;5086523;28;19912;-63
2022/06/05 09:39:45;;;;;;;;;;;24.70;95.10;;;;;;5087233;28;19900;-58
2022/06/05 09:42:11;;;;;;;;;;;24.70;95.10;;;;;;5086264;28;24078;-55
2022/06/05 09:44:55;;;;;;;;;;;24.60;95.10;;;;;;5086898;28;20062;-58
2022/06/05 09:47:43;;;;;;;;;;;24.70;95.10;;;;;;5086475;28;19971;-57
2022/06/05 09:50:23;;;;;;;;;;;24.70;95.20;;;;;;5086122;28;20267;-58
2022/06/05 09:52:50;;;;;;;;;;;24.70;95.20;;;;;;5085119;28;24069;-56
2022/06/05 09:55:36;;;;;;;;;;;24.70;95.30;;;;;;5079179;28;20196;-60
2022/06/05 09:58:25;;;;;;;;;;;24.70;95.30;;;;;;5055353;28;19962;-56
2022/06/05 10:00:55;;;;;;;;;;;24.70;95.40;;;;;;5058132;28;19908;-56
2022/06/05 10:03:24;;;;;;;;;;;24.70;95.30;;;;;;5086588;28;24051;-58
2022/06/05 10:06:10;;;;;;;;;;;24.70;95.30;;;;;;5086134;28;19983;-58
2022/06/05 10:08:44;;;;;;;;;;;24.70;95.30;;;;;;5086595;28;24101;-59
2022/06/05 10:11:24;;;;;;;;;;;24.70;95.40;;;;;;5085581;28;19908;-57
2022/06/05 10:14:13;;;;;;;;;;;24.70;95.40;;;;;;5086616;28;19968;-56
2022/06/05 10:16:49;;;;;;;;;;;24.70;95.40;;;;;;5077684;28;25103;-58
2022/06/05 10:19:34;;;;;;;;;;;24.70;95.40;;;;;;5085624;28;20015;-56
2022/06/05 10:22:08;;;;;;;;;;;24.70;95.50;;;;;;5086025;28;20105;-57
2022/06/05 10:24:46;;;;;;;;;;;24.70;95.60;;;;;;5085795;28;19904;-57
2022/06/05 10:27:13;;;;;;;;;;;24.70;95.60;;;;;;5067448;28;20097;-59
2022/06/05 10:29:45;;;;;;;;;;;24.70;95.60;;;;;;5085882;28;20085;-57
2022/06/05 10:32:17;;;;;;;;;;;24.70;95.60;;;;;;5085025;28;19908;-56
2022/06/05 10:34:43;;;;;;;;;;;24.70;95.70;;;;;;5085893;28;19946;-60
2022/06/05 10:37:24;;;;;;;;;;;24.70;95.70;;;;;;5085217;28;20185;-59
2022/06/05 10:39:59;;;;;;;;;;;24.60;95.60;;;;;;5084905;28;19905;-58
2022/06/05 10:42:34;;;;;;;;;;;24.70;95.70;;;;;;5085580;28;19911;-56
2022/06/05 10:45:19;;;;;;;;;;;24.70;95.70;;;;;;5085350;28;19916;-57
2022/06/05 10:48:14;;;;;;;;;;;24.70;95.70;;;;;;5085185;28;19979;-57
2022/06/05 10:50:52;;;;;;;;;;;24.70;95.70;;;;;;5071772;28;19926;-57
2022/06/05 10:53:27;;;;;;;;;;;24.60;95.70;;;;;;5084803;28;19905;-56
2022/06/05 10:55:56;;;;;;;;;;;24.70;95.70;;;;;;5084549;28;19912;-56
2022/06/05 10:58:22;;;;;;;;;;;24.70;95.70;;;;;;5084690;28;24088;-56
2022/06/05 11:00:52;;;;;;;;;;;24.60;95.70;;;;;;5084732;28;24085;-60
2022/06/05 11:03:43;;;;;;;;;;;24.60;95.70;;;;;;5084690;28;19971;-55
2022/06/05 11:06:28;;;;;;;;;;;24.70;95.80;;;;;;5083980;28;20007;-56
2022/06/05 11:09:00;;;;;;;;;;;24.70;95.70;;;;;;5084411;28;19904;-58
2022/06/05 11:14:57;;;;;;;;;;;24.70;95.60;;;;;;5084786;28;19983;-59
2022/06/05 11:17:27;;;;;;;;;;;24.70;95.70;;;;;;5037014;28;19910;-56
2022/06/05 11:19:53;;;;;;;;;;;24.70;95.70;;;;;;5084867;28;19912;-56
2022/06/05 11:22:21;;;;;;;;;;;24.70;95.70;;;;;;5084400;28;24065;-56
2022/06/05 11:24:49;;;;;;;;;;;24.70;95.80;;;;;;5084583;28;19904;-55
2022/06/05 11:27:24;;;;;;;;;;;24.70;95.80;;;;;;5084391;28;19912;-56
2022/06/05 11:29:59;;;;;;;;;;;24.60;95.80;;;;;;5084854;28;19912;-55
2022/06/05 11:32:37;;;;;;;;;;;24.70;95.80;;;;;;5083730;28;24091;-57
2022/06/05 11:35:12;;;;;;;;;;;24.70;95.90;;;;;;5083976;28;19912;-54
2022/06/05 11:37:57;;;;;;;;;;;24.70;95.80;;;;;;5084042;28;19927;-57
2022/06/05 11:40:28;;;;;;;;;;;24.70;95.90;;;;;;5084217;28;19908;-58
2022/06/05 11:42:54;;;;;;;;;;;24.70;95.90;;;;;;5083619;28;20203;-56
2022/06/05 11:45:34;;;;;;;;;;;24.70;95.90;;;;;;5083995;28;19904;-62
2022/06/05 11:48:03;;;;;;;;;;;24.70;95.90;;;;;;5081236;28;20291;-56
2022/06/05 11:50:32;;;;;;;;;;;24.70;95.90;;;;;;5078668;28;24078;-59
2022/06/05 11:52:58;;;;;;;;;;;24.70;95.90;;;;;;5081465;28;19967;-58
2022/06/05 11:55:41;;;;;;;;;;;24.70;95.80;;;;;;5077922;28;19915;-57
2022/06/05 11:58:11;;;;;;;;;;;24.70;96.10;;;;;;5083676;28;19908;-56
2022/06/05 12:00:40;;;;;;;;;;;24.70;95.90;;;;;;5083633;28;19904;-55
2022/06/05 12:03:38;;;;;;;;;;;24.70;96.00;;;;;;5083958;28;19905;-55
2022/06/05 12:06:10;;;;;;;;;;;24.70;96.00;;;;;;5050326;28;19968;-55
2022/06/05 12:08:39;;;;;;;;;;;24.60;96.00;;;;;;5085067;28;19943;-58
2022/06/05 12:11:12;;;;;;;;;;;24.70;96.00;;;;;;5084028;28;19932;-55
2022/06/05 12:13:47;;;;;;;;;;;24.60;96.00;;;;;;5083661;28;19911;-57
2022/06/05 12:16:17;;;;;;;;;;;24.70;96.00;;;;;;5083662;28;19908;-59
2022/06/05 12:18:48;;;;;;;;;;;24.70;96.00;;;;;;5083238;28;19905;-58
2022/06/05 12:21:37;;;;;;;;;;;24.60;96.00;;;;;;5083221;28;24082;-57
2022/06/05 12:24:26;;;;;;;;;;;24.70;96.10;;;;;;5054884;28;19904;-56
2022/06/05 12:26:58;;;;;;;;;;;24.70;96.10;;;;;;5075051;28;20095;-55
2022/06/05 12:29:34;;;;;;;;;;;24.70;96.20;;;;;;5084054;28;20204;-56
2022/06/05 12:32:04;;;;;;;;;;;24.70;96.20;;;;;;5083231;28;19905;-55
2022/06/05 12:34:50;;;;;;;;;;;24.70;96.20;;;;;;5082557;28;19908;-58
2022/06/05 12:37:28;;;;;;;;;;;24.70;96.20;;;;;;5083154;28;19940;-56
2022/06/05 12:39:55;;;;;;;;;;;24.70;96.20;;;;;;5083432;28;19975;-56
2022/06/05 12:42:22;;;;;;;;;;;24.70;96.20;;;;;;5084458;28;19904;-56
2022/06/05 12:44:54;;;;;;;;;;;24.70;96.20;;;;;;5087372;28;24071;-57
2022/06/05 12:47:26;;;;;;;;;;;24.70;96.20;;;;;;5087867;28;19912;-55
2022/06/05 12:49:56;;;;;;;;;;;24.80;96.30;;;;;;5088062;28;19911;-57
2022/06/05 12:52:25;;;;;;;;;;;24.70;96.40;;;;;;5087207;28;24077;-56
2022/06/05 12:54:56;;;;;;;;;;;24.70;96.40;;;;;;5087384;28;19904;-55
2022/06/05 12:57:52;;;;;;;;;;;24.70;96.40;;;;;;5086715;28;19908;-56
2022/06/05 13:00:18;;;;;;;;;;;24.70;96.40;;;;;;5032620;28;20166;-60
2022/06/05 13:02:58;;;;;;;;;;;24.70;96.50;;;;;;5087011;28;19968;-56
2022/06/05 13:05:30;;;;;;;;;;;24.70;96.50;;;;;;5087425;28;19908;-56
2022/06/05 13:08:04;;;;;;;;;;;24.80;96.50;;;;;;5084805;28;19901;-54
2022/06/05 13:10:30;;;;;;;;;;;24.70;96.60;;;;;;5081885;28;19979;-55
2022/06/05 13:13:03;;;;;;;;;;;24.80;96.70;;;;;;5084585;28;19907;-55
2022/06/05 13:15:29;;;;;;;;;;;24.80;96.70;;;;;;5081424;28;19940;-54
2022/06/05 13:18:15;;;;;;;;;;;24.80;96.70;;;;;;5084467;28;24106;-56
2022/06/05 13:20:49;;;;;;;;;;;24.80;96.80;;;;;;5061086;28;19908;-57
2022/06/05 13:23:31;;;;;;;;;;;24.80;96.70;;;;;;5086243;28;20149;-56
2022/06/05 13:26:03;;;;;;;;;;;24.80;96.70;;;;;;5086393;28;20121;-55
2022/06/05 13:28:33;;;;;;;;;;;24.80;96.80;;;;;;5086512;28;19907;-55
2022/06/05 13:31:05;;;;;;;;;;;24.80;96.90;;;;;;5086260;28;19908;-55
2022/06/05 13:33:36;;;;;;;;;;;24.80;97.00;;;;;;5086207;28;20171;-56
2022/06/05 13:36:02;;;;;;;;;;;24.80;97.00;;;;;;5086218;28;19987;-55
2022/06/05 13:38:46;;;;;;;;;;;24.80;97.00;;;;;;5086277;28;24078;-55
2022/06/05 13:41:31;;;;;;;;;;;24.80;97.00;;;;;;5086233;28;19905;-56
2022/06/05 13:44:02;;;;;;;;;;;24.80;97.00;;;;;;5086388;28;20176;-55
2022/06/05 13:46:34;;;;;;;;;;;24.80;96.90;;;;;;5086324;28;24072;-60
2022/06/05 13:49:00;;;;;;;;;;;24.80;96.90;;;;;;5086511;28;19927;-55
2022/06/05 13:51:32;;;;;;;;;;;24.80;96.90;;;;;;5085691;28;19912;-57
2022/06/05 13:54:10;;;;;;;;;;;24.80;97.00;;;;;;5084746;28;24081;-55
2022/06/05 13:56:42;;;;;;;;;;;24.90;97.00;;;;;;5086015;28;20097;-55
2022/06/05 13:59:15;;;;;;;;;;;24.90;97.00;;;;;;5086139;28;19904;-55
2022/06/05 14:01:58;;;;;;;;;;;24.90;97.00;;;;;;5085977;28;19908;-55
2022/06/05 14:04:27;;;;;;;;;;;24.90;97.00;;;;;;5085806;28;19905;-56
2022/06/05 14:07:12;;;;;;;;;;;24.90;97.10;;;;;;5085529;28;19904;-58
2022/06/05 14:09:41;;;;;;;;;;;24.90;97.10;;;;;;5086141;28;19939;-57
2022/06/05 14:12:17;;;;;;;;;;;24.90;97.10;;;;;;5085749;28;19968;-56
2022/06/05 14:14:44;;;;;;;;;;;24.90;97.10;;;;;;5085949;28;19957;-57
2022/06/05 14:17:21;;;;;;;;;;;24.90;97.20;;;;;;5085298;28;24080;-56
2022/06/05 14:19:51;;;;;;;;;;;24.90;97.20;;;;;;5085926;28;24064;-56
2022/06/05 14:22:20;;;;;;;;;;;24.90;97.30;;;;;;5085322;28;19904;-57
2022/06/05 14:24:47;;;;;;;;;;;24.90;97.30;;;;;;5084920;28;19904;-59
2022/06/05 14:27:17;;;;;;;;;;;25.00;97.30;;;;;;5085416;28;19904;-55
2022/06/05 14:29:47;;;;;;;;;;;25.00;97.40;;;;;;5085745;28;24090;-55
2022/06/05 14:32:39;;;;;;;;;;;25.00;97.40;;;;;;5085156;28;20060;-55
2022/06/05 14:35:15;;;;;;;;;;;25.00;97.30;;;;;;5082373;28;19916;-56
2022/06/05 14:37:46;;;;;;;;;;;25.00;97.40;;;;;;5084689;28;19900;-56
2022/06/05 14:40:14;;;;;;;;;;;25.00;97.40;;;;;;5085476;28;19908;-56
2022/06/05 14:42:50;;;;;;;;;;;25.00;97.50;;;;;;5084813;28;24057;-53
2022/06/05 14:45:18;;;;;;;;;;;25.00;97.60;;;;;;5084770;28;19932;-54
2022/06/05 14:47:55;;;;;;;;;;;25.00;97.80;;;;;;5084289;28;20176;-54
2022/06/05 14:50:23;;;;;;;;;;;25.00;97.70;;;;;;5078909;28;20001;-56
2022/06/05 14:53:08;;;;;;;;;;;25.00;97.70;;;;;;5084880;28;19900;-56
2022/06/05 14:58:27;;;;;;;;;;;25.10;97.70;;;;;;5085108;28;19942;-56
2022/06/05 15:00:56;;;;;;;;;;;25.10;97.80;;;;;;5085051;28;19924;-60